Time;durP1;ratioP1;P1;durP2;ratioP2;P2;SDS_P1;SDS_P2;PMS_P1;PMS_P2;Temp;Humidity;BMP_temperature;BMP_pressure;BME280_temperature;BME280_humidity;BME280_pressure;Samples;Min_cycle;Max_cycle;Signal;HPM_P1;HPM_P2
2023/08/16 00:02:21;;;;;;;0.82;0.40;;;21.00;70.20;;;;;;5049181;28;20052;-64
2023/08/16 00:04:47;;;;;;;0.80;0.65;;;21.00;70.20;;;;;;5056127;28;20029;-64
2023/08/16 00:07:13;;;;;;;0.88;0.60;;;21.00;70.20;;;;;;5049633;28;20146;-64
2023/08/16 00:09:39;;;;;;;0.60;0.60;;;21.00;70.30;;;;;;5056111;28;20396;-67
2023/08/16 00:12:06;;;;;;;0.68;0.60;;;20.90;70.40;;;;;;5051669;28;20066;-67
2023/08/16 00:14:32;;;;;;;0.45;0.45;;;20.90;70.50;;;;;;5056407;28;20033;-67
2023/08/16 00:16:57;;;;;;;0.60;0.60;;;20.80;70.50;;;;;;5046109;28;20049;-67
2023/08/16 00:19:23;;;;;;;1.20;0.63;;;20.80;70.50;;;;;;5054255;28;20021;-67
2023/08/16 00:21:50;;;;;;;0.63;0.50;;;20.80;70.60;;;;;;5046854;28;20144;-67
2023/08/16 00:24:16;;;;;;;0.40;0.40;;;20.80;70.50;;;;;;5048274;28;20116;-67
2023/08/16 00:26:42;;;;;;;1.73;0.40;;;20.80;70.60;;;;;;5046641;28;20033;-67
2023/08/16 00:29:07;;;;;;;1.38;0.65;;;20.80;70.60;;;;;;5052164;28;20061;-67
2023/08/16 00:31:33;;;;;;;0.68;0.60;;;20.70;70.60;;;;;;5050645;28;20033;-67
2023/08/16 00:33:59;;;;;;;2.47;0.90;;;20.70;70.60;;;;;;5044936;28;20506;-69
2023/08/16 00:36:24;;;;;;;0.43;0.30;;;20.80;70.70;;;;;;5049126;28;20480;-66
2023/08/16 00:38:50;;;;;;;0.45;0.40;;;20.80;70.70;;;;;;5051105;28;20086;-65
2023/08/16 00:41:16;;;;;;;1.70;0.88;;;20.80;70.60;;;;;;5046202;28;20396;-66
2023/08/16 00:43:41;;;;;;;1.58;0.75;;;20.80;70.50;;;;;;5047222;28;20538;-65
2023/08/16 00:46:11;;;;;;;1.80;1.00;;;20.80;70.50;;;;;;5054666;28;20487;-66
2023/08/16 00:48:40;;;;;;;0.85;0.60;;;20.80;70.40;;;;;;5050388;28;20021;-66
2023/08/16 00:51:06;;;;;;;2.25;1.38;;;20.80;71.00;;;;;;5049232;28;20026;-69
2023/08/16 00:53:32;;;;;;;0.77;0.75;;;20.80;70.30;;;;;;5038576;28;20032;-67
2023/08/16 00:55:59;;;;;;;1.63;0.98;;;20.70;70.30;;;;;;5052887;28;20032;-67
2023/08/16 00:58:27;;;;;;;0.68;0.68;;;20.70;70.30;;;;;;5047734;28;20492;-67
2023/08/16 01:00:53;;;;;;;0.50;0.50;;;20.70;70.10;;;;;;5051661;28;20095;-67
2023/08/16 01:03:19;;;;;;;0.73;0.73;;;20.70;70.20;;;;;;5045969;28;20473;-67
2023/08/16 01:05:45;;;;;;;0.77;0.77;;;20.80;70.20;;;;;;5048434;28;20043;-69
2023/08/16 01:08:11;;;;;;;1.05;0.75;;;20.80;70.10;;;;;;5042507;28;21525;-67
2023/08/16 01:10:54;;;;;;;1.15;0.75;;;20.80;70.10;;;;;;5055197;28;20041;-67
2023/08/16 01:13:33;;;;;;;2.70;1.27;;;20.80;70.10;;;;;;5045759;28;20028;-64
2023/08/16 01:16:01;;;;;;;1.27;0.60;;;20.80;70.10;;;;;;5047275;28;20044;-64
2023/08/16 01:18:30;;;;;;;1.10;0.77;;;20.80;70.10;;;;;;5045201;28;20046;-64
2023/08/16 01:20:56;;;;;;;0.73;0.60;;;20.80;70.10;;;;;;5047323;28;20060;-64
2023/08/16 01:23:34;;;;;;;2.15;0.60;;;20.80;70.10;;;;;;5047972;28;20083;-64
2023/08/16 01:26:27;;;;;;;0.50;0.50;;;20.90;70.10;;;;;;5051619;28;20506;-64
2023/08/16 01:28:54;;;;;;;1.00;0.88;;;20.90;70.00;;;;;;5040910;28;20041;-64
2023/08/16 01:31:20;;;;;;;0.68;0.63;;;20.90;70.10;;;;;;5049879;28;20029;-65
2023/08/16 01:33:46;;;;;;;1.40;0.60;;;20.90;70.00;;;;;;5040687;28;20025;-64
2023/08/16 01:36:12;;;;;;;0.45;0.45;;;20.90;70.00;;;;;;5046915;28;20106;-65
2023/08/16 01:38:38;;;;;;;1.52;0.98;;;20.90;70.00;;;;;;5047359;28;20460;-65
2023/08/16 01:41:24;;;;;;;0.77;0.52;;;20.80;70.00;;;;;;5042871;28;20439;-66
2023/08/16 01:43:51;;;;;;;2.58;0.80;;;20.80;69.80;;;;;;5051483;28;20040;-65
2023/08/16 01:46:19;;;;;;;1.50;0.85;;;20.80;70.00;;;;;;5042719;28;20033;-65
2023/08/16 01:48:46;;;;;;;3.20;1.02;;;20.80;69.90;;;;;;5048693;28;20045;-65
2023/08/16 01:51:12;;;;;;;0.50;0.50;;;20.80;70.00;;;;;;5049416;28;20036;-65
2023/08/16 01:53:38;;;;;;;1.23;0.82;;;20.80;70.00;;;;;;5045361;28;20029;-68
2023/08/16 01:56:04;;;;;;;0.70;0.63;;;20.80;70.10;;;;;;5043868;28;20032;-68
2023/08/16 01:58:30;;;;;;;1.38;1.00;;;20.80;70.10;;;;;;5049165;28;20029;-68
2023/08/16 02:00:56;;;;;;;2.05;0.88;;;20.80;70.00;;;;;;5053166;28;20037;-68
2023/08/16 02:03:21;;;;;;;1.02;0.70;;;20.80;70.00;;;;;;5053219;28;20033;-69
2023/08/16 02:05:47;;;;;;;0.73;0.47;;;20.80;70.00;;;;;;5039210;28;20131;-69
2023/08/16 02:08:12;;;;;;;1.70;0.88;;;20.90;70.00;;;;;;5042413;28;20033;-69
2023/08/16 02:10:38;;;;;;;0.73;0.65;;;20.80;69.90;;;;;;5045941;28;20060;-69
2023/08/16 02:13:04;;;;;;;2.45;0.57;;;20.90;69.90;;;;;;5044278;28;20378;-69
2023/08/16 02:15:30;;;;;;;2.33;0.80;;;20.90;69.90;;;;;;5040841;28;20025;-68
2023/08/16 02:17:55;;;;;;;0.70;0.70;;;20.80;69.80;;;;;;5050672;28;20064;-68
2023/08/16 02:20:21;;;;;;;0.90;0.85;;;20.80;69.80;;;;;;5056419;28;20026;-67
2023/08/16 02:22:47;;;;;;;1.05;0.95;;;20.80;69.90;;;;;;5045620;28;20083;-68
2023/08/16 02:25:13;;;;;;;0.60;0.60;;;20.80;70.00;;;;;;5046860;28;20037;-68
2023/08/16 02:27:39;;;;;;;1.83;0.73;;;20.70;70.00;;;;;;5048640;28;20044;-68
2023/08/16 02:30:06;;;;;;;0.60;0.60;;;20.70;70.10;;;;;;5046931;28;20029;-68
2023/08/16 02:32:33;;;;;;;0.63;0.63;;;20.70;70.30;;;;;;5046823;28;20052;-68
2023/08/16 02:34:59;;;;;;;0.70;0.70;;;20.60;70.30;;;;;;5046974;28;20025;-68
2023/08/16 02:37:25;;;;;;;2.65;0.60;;;20.50;70.50;;;;;;5046663;28;20033;-68
2023/08/16 02:39:51;;;;;;;1.02;0.93;;;20.50;70.60;;;;;;5058646;28;20032;-68
2023/08/16 02:42:17;;;;;;;1.25;0.70;;;20.50;70.80;;;;;;5037478;28;20029;-68
2023/08/16 02:44:43;;;;;;;4.60;1.55;;;20.40;70.90;;;;;;5049757;28;20398;-64
2023/08/16 02:47:09;;;;;;;2.20;1.33;;;20.40;71.10;;;;;;5048952;28;20075;-64
2023/08/16 02:49:34;;;;;;;2.40;0.63;;;20.50;71.10;;;;;;5043790;28;20035;-64
2023/08/16 02:52:00;;;;;;;2.17;0.95;;;20.50;71.20;;;;;;5040002;28;20033;-64
2023/08/16 02:54:25;;;;;;;1.10;0.60;;;20.50;71.20;;;;;;5039066;28;20061;-64
2023/08/16 02:56:51;;;;;;;1.00;0.63;;;20.50;71.40;;;;;;5052294;28;20094;-64
2023/08/16 02:59:17;;;;;;;3.85;1.10;;;20.50;71.40;;;;;;5052659;28;20033;-64
2023/08/16 03:01:43;;;;;;;0.82;0.75;;;20.40;71.50;;;;;;5047204;28;20058;-64
2023/08/16 03:04:09;;;;;;;1.27;0.70;;;20.50;71.50;;;;;;5048048;28;20071;-65
2023/08/16 03:06:35;;;;;;;1.00;0.80;;;20.50;71.60;;;;;;5043395;28;20056;-65
2023/08/16 03:09:01;;;;;;;1.83;0.90;;;20.50;71.60;;;;;;5043231;28;20071;-64
2023/08/16 03:11:27;;;;;;;4.22;1.05;;;20.50;71.60;;;;;;5047424;28;20062;-64
2023/08/16 03:13:52;;;;;;;1.05;0.82;;;20.50;72.20;;;;;;5047529;28;20087;-64
2023/08/16 03:16:18;;;;;;;2.72;1.05;;;20.50;71.70;;;;;;5043087;28;20029;-64
2023/08/16 03:18:44;;;;;;;0.73;0.73;;;20.50;71.80;;;;;;5050473;28;20033;-65
2023/08/16 03:21:09;;;;;;;1.65;1.20;;;20.40;71.80;;;;;;5040827;28;20061;-64
2023/08/16 03:23:35;;;;;;;0.82;0.70;;;20.40;71.90;;;;;;5050383;28;20075;-64
2023/08/16 03:26:01;;;;;;;1.10;1.00;;;20.40;71.90;;;;;;5050422;28;20044;-65
2023/08/16 03:28:26;;;;;;;0.70;0.70;;;20.40;72.00;;;;;;5052572;28;20119;-64
2023/08/16 03:30:52;;;;;;;0.98;0.65;;;20.40;72.00;;;;;;5049848;28;20749;-65
2023/08/16 03:33:18;;;;;;;0.80;0.80;;;20.40;72.10;;;;;;5045966;28;20026;-65
2023/08/16 03:35:43;;;;;;;1.40;0.57;;;20.40;72.10;;;;;;5046437;28;20033;-65
2023/08/16 03:38:09;;;;;;;0.80;0.80;;;20.30;72.10;;;;;;5046819;28;20026;-65
2023/08/16 03:40:35;;;;;;;1.05;0.95;;;20.30;72.10;;;;;;5050338;28;20411;-65
2023/08/16 03:43:00;;;;;;;1.27;0.85;;;20.30;72.30;;;;;;5046055;28;20156;-64
2023/08/16 03:45:26;;;;;;;2.92;0.98;;;20.30;72.40;;;;;;5049262;28;20040;-64
2023/08/16 03:47:53;;;;;;;2.45;1.00;;;20.30;72.40;;;;;;5045388;28;20057;-64
2023/08/16 03:50:19;;;;;;;1.05;0.90;;;20.30;72.50;;;;;;5043843;28;20654;-64
2023/08/16 03:52:45;;;;;;;2.92;1.60;;;20.20;72.50;;;;;;5045977;28;20025;-64
2023/08/16 03:55:11;;;;;;;1.48;1.15;;;20.20;72.60;;;;;;5047245;28;20025;-65
2023/08/16 03:57:39;;;;;;;1.20;0.80;;;20.20;72.60;;;;;;5057429;28;20108;-65
2023/08/16 04:00:10;;;;;;;1.05;0.90;;;20.20;72.70;;;;;;5038631;28;20029;-65
2023/08/16 04:02:36;;;;;;;1.63;1.27;;;20.10;72.70;;;;;;5052084;28;20040;-65
2023/08/16 04:05:08;;;;;;;1.80;1.17;;;20.10;72.90;;;;;;5048501;28;20036;-69
2023/08/16 04:07:34;;;;;;;1.33;1.23;;;20.10;73.00;;;;;;5049229;28;20035;-69
2023/08/16 04:10:00;;;;;;;0.70;0.70;;;20.00;73.00;;;;;;5048654;28;20235;-69
2023/08/16 04:12:25;;;;;;;2.05;0.80;;;20.00;73.00;;;;;;5044836;28;20543;-68
2023/08/16 04:14:51;;;;;;;1.15;1.05;;;20.00;73.00;;;;;;5050671;28;20112;-69
2023/08/16 04:17:17;;;;;;;1.05;0.68;;;20.00;73.10;;;;;;5053874;28;20051;-69
2023/08/16 04:19:43;;;;;;;1.80;1.42;;;20.00;73.30;;;;;;5052056;28;20477;-68
2023/08/16 04:22:08;;;;;;;1.45;0.80;;;20.00;73.40;;;;;;5051938;28;20037;-69
2023/08/16 04:24:34;;;;;;;1.42;0.90;;;20.00;73.50;;;;;;5048034;28;20051;-68
2023/08/16 04:27:00;;;;;;;3.25;0.70;;;20.10;73.60;;;;;;5035961;28;20106;-69
2023/08/16 04:29:31;;;;;;;1.23;0.77;;;20.10;73.50;;;;;;5044293;28;20048;-69
2023/08/16 04:31:57;;;;;;;3.95;1.05;;;20.10;73.40;;;;;;5049959;28;20044;-69
2023/08/16 04:34:22;;;;;;;2.78;0.70;;;20.10;73.50;;;;;;5045614;28;20025;-69
2023/08/16 04:36:48;;;;;;;1.48;0.88;;;20.10;73.50;;;;;;5047689;28;20017;-65
2023/08/16 04:39:14;;;;;;;1.05;0.70;;;20.10;73.50;;;;;;5052532;28;20468;-64
2023/08/16 04:41:39;;;;;;;1.67;0.90;;;20.10;73.50;;;;;;5051636;28;20132;-68
2023/08/16 04:44:06;;;;;;;1.00;0.82;;;20.10;73.40;;;;;;5050766;28;20036;-68
2023/08/16 04:46:32;;;;;;;1.00;0.85;;;20.10;73.40;;;;;;5056223;28;20028;-68
2023/08/16 04:48:57;;;;;;;0.95;0.80;;;20.10;73.60;;;;;;5049803;28;20372;-68
2023/08/16 04:51:23;;;;;;;3.60;0.60;;;20.00;73.80;;;;;;5043350;28;20068;-64
2023/08/16 04:53:49;;;;;;;2.35;0.90;;;19.90;73.90;;;;;;5051802;28;20054;-65
2023/08/16 04:56:14;;;;;;;0.82;0.82;;;19.90;73.90;;;;;;5047458;28;20499;-64
2023/08/16 04:58:40;;;;;;;1.83;0.70;;;19.90;74.00;;;;;;5051485;28;20071;-64
2023/08/16 05:01:06;;;;;;;5.72;1.23;;;19.90;74.00;;;;;;5052316;28;20600;-65
2023/08/16 05:03:32;;;;;;;1.52;1.20;;;19.90;74.00;;;;;;5056968;28;20036;-65
2023/08/16 05:06:03;;;;;;;1.25;1.02;;;19.90;74.00;;;;;;5044161;28;20041;-65
2023/08/16 05:08:30;;;;;;;3.60;1.38;;;19.90;74.10;;;;;;5050502;28;20033;-65
2023/08/16 05:10:57;;;;;;;1.45;0.80;;;19.90;74.10;;;;;;5048903;28;20064;-66
2023/08/16 05:13:23;;;;;;;0.77;0.77;;;19.90;74.10;;;;;;5045603;28;20437;-66
2023/08/16 05:15:48;;;;;;;1.33;0.85;;;19.90;74.10;;;;;;5047484;28;20421;-65
2023/08/16 05:18:14;;;;;;;3.97;0.98;;;19.90;74.10;;;;;;5050242;28;20041;-66
2023/08/16 05:20:40;;;;;;;1.45;1.00;;;19.90;74.20;;;;;;5049630;28;20507;-67
2023/08/16 05:23:05;;;;;;;0.80;0.80;;;19.80;74.30;;;;;;5071834;28;20033;-65
2023/08/16 05:25:31;;;;;;;3.95;1.75;;;19.80;74.40;;;;;;5048985;28;20029;-65
2023/08/16 05:27:58;;;;;;;1.10;1.00;;;19.80;74.50;;;;;;5047272;28;20132;-65
2023/08/16 05:30:28;;;;;;;1.75;1.10;;;19.80;74.40;;;;;;5046663;28;20434;-65
2023/08/16 05:32:55;;;;;;;1.00;0.90;;;19.80;74.60;;;;;;5048550;28;20055;-69
2023/08/16 05:35:21;;;;;;;1.27;1.10;;;19.80;74.60;;;;;;5051071;28;20068;-69
2023/08/16 05:37:48;;;;;;;1.30;1.02;;;19.80;74.60;;;;;;5052591;28;20120;-69
2023/08/16 05:40:14;;;;;;;2.05;1.10;;;19.80;74.60;;;;;;5052825;28;20033;-68
2023/08/16 05:42:40;;;;;;;1.90;1.25;;;19.80;74.60;;;;;;5044961;28;20048;-69
2023/08/16 05:45:07;;;;;;;1.70;1.27;;;19.90;74.60;;;;;;5040485;28;20134;-69
2023/08/16 05:47:33;;;;;;;4.82;1.40;;;19.90;74.60;;;;;;5042144;28;20330;-69
2023/08/16 05:50:00;;;;;;;4.28;1.55;;;19.90;74.70;;;;;;5052049;28;20028;-65
2023/08/16 05:52:26;;;;;;;3.13;0.80;;;19.90;74.60;;;;;;5042512;28;20036;-65
2023/08/16 05:54:51;;;;;;;2.35;1.45;;;20.00;74.60;;;;;;5045102;28;20396;-65
2023/08/16 05:57:17;;;;;;;2.35;1.13;;;20.10;74.60;;;;;;5046261;28;20021;-65
2023/08/16 05:59:43;;;;;;;1.00;0.90;;;20.10;74.50;;;;;;5039823;28;20060;-65
2023/08/16 06:02:08;;;;;;;2.70;0.88;;;20.20;74.50;;;;;;5047981;28;20028;-65
2023/08/16 06:04:35;;;;;;;1.15;0.77;;;20.20;74.50;;;;;;5046295;28;20038;-65
2023/08/16 06:07:04;;;;;;;1.02;0.90;;;20.30;74.40;;;;;;5043728;28;20116;-69
2023/08/16 06:09:30;;;;;;;1.17;1.05;;;20.30;74.30;;;;;;5051740;28;20549;-68
2023/08/16 06:11:56;;;;;;;3.22;0.70;;;20.40;74.30;;;;;;5049965;28;20480;-64
2023/08/16 06:14:22;;;;;;;0.70;0.65;;;20.40;74.20;;;;;;5049641;28;20025;-64
2023/08/16 06:16:47;;;;;;;1.20;0.88;;;20.50;74.00;;;;;;5044114;28;20112;-64
2023/08/16 06:19:14;;;;;;;0.80;0.80;;;20.60;74.50;;;;;;5058264;28;20032;-64
2023/08/16 06:21:40;;;;;;;2.85;1.48;;;20.70;73.90;;;;;;5037420;28;20025;-64
2023/08/16 06:24:08;;;;;;;0.95;0.85;;;20.70;73.80;;;;;;5052269;28;20031;-64
2023/08/16 06:26:34;;;;;;;0.90;0.75;;;20.80;73.90;;;;;;5049728;28;20093;-68
2023/08/16 06:28:59;;;;;;;1.25;0.85;;;20.80;73.90;;;;;;5041591;28;20423;-68
2023/08/16 06:31:25;;;;;;;0.70;0.70;;;20.80;74.00;;;;;;5044977;28;20120;-68
2023/08/16 06:33:51;;;;;;;0.60;0.60;;;20.80;73.90;;;;;;5047146;28;20542;-67
2023/08/16 06:36:17;;;;;;;1.05;0.55;;;20.80;73.80;;;;;;5050382;28;20044;-70
2023/08/16 06:38:43;;;;;;;0.90;0.80;;;20.90;73.90;;;;;;5038879;28;20033;-65
2023/08/16 06:41:09;;;;;;;0.45;0.45;;;20.90;74.00;;;;;;5048906;28;20143;-64
2023/08/16 06:43:35;;;;;;;2.00;0.90;;;21.00;73.90;;;;;;5047402;28;20040;-64
2023/08/16 06:46:01;;;;;;;1.20;0.60;;;21.00;73.90;;;;;;5044470;28;20044;-64
2023/08/16 06:48:27;;;;;;;0.85;0.85;;;21.10;73.80;;;;;;5047743;28;20044;-64
2023/08/16 06:50:53;;;;;;;1.20;0.50;;;21.10;73.70;;;;;;5047280;28;20144;-63
2023/08/16 06:53:19;;;;;;;0.90;0.50;;;21.20;73.70;;;;;;5048352;28;20035;-63
2023/08/16 06:55:45;;;;;;;0.90;0.70;;;21.30;73.60;;;;;;5036952;28;20026;-64
2023/08/16 06:58:11;;;;;;;1.63;1.00;;;21.30;73.40;;;;;;5049906;28;20829;-68
2023/08/16 07:00:36;;;;;;;0.50;0.50;;;21.40;73.30;;;;;;5050799;28;20048;-64
2023/08/16 07:03:03;;;;;;;0.60;0.60;;;21.50;73.20;;;;;;5047477;28;20458;-68
2023/08/16 07:05:29;;;;;;;0.52;0.50;;;21.50;73.10;;;;;;5057339;28;20028;-68
2023/08/16 07:07:55;;;;;;;0.65;0.60;;;21.60;73.00;;;;;;5060597;28;20403;-66
2023/08/16 07:10:21;;;;;;;4.93;1.02;;;21.60;72.80;;;;;;5059395;28;20558;-64
2023/08/16 07:12:47;;;;;;;1.20;0.50;;;21.70;72.70;;;;;;5044177;28;20028;-64
2023/08/16 07:15:13;;;;;;;0.60;0.60;;;21.70;72.60;;;;;;5061086;28;20040;-64
2023/08/16 07:17:39;;;;;;;0.95;0.82;;;21.80;72.50;;;;;;5048714;28;20056;-64
2023/08/16 07:20:08;;;;;;;5.38;1.33;;;21.80;72.50;;;;;;5050921;28;20082;-63
2023/08/16 07:22:37;;;;;;;2.08;0.63;;;21.80;72.30;;;;;;5052646;28;20074;-63
2023/08/16 07:25:04;;;;;;;2.38;1.02;;;21.90;72.20;;;;;;5052600;28;20025;-63
2023/08/16 07:27:30;;;;;;;1.33;0.50;;;22.00;72.10;;;;;;5053046;28;20086;-63
2023/08/16 07:29:55;;;;;;;0.75;0.60;;;22.00;71.90;;;;;;5048473;28;20455;-63
2023/08/16 07:32:21;;;;;;;0.55;0.50;;;22.10;71.80;;;;;;5049890;28;20063;-63
2023/08/16 07:34:47;;;;;;;0.75;0.70;;;22.10;71.60;;;;;;5048540;28;20111;-70
2023/08/16 07:37:13;;;;;;;0.73;0.50;;;22.10;71.40;;;;;;5053863;28;20112;-63
2023/08/16 07:39:39;;;;;;;0.73;0.73;;;22.10;71.50;;;;;;5052231;28;20602;-69
2023/08/16 07:42:08;;;;;;;0.52;0.40;;;22.10;71.50;;;;;;5032191;28;20040;-70
2023/08/16 07:44:35;;;;;;;0.75;0.70;;;22.10;71.50;;;;;;5046613;28;20084;-61
2023/08/16 07:47:00;;;;;;;0.45;0.43;;;22.10;71.50;;;;;;5046249;28;20035;-70
2023/08/16 07:49:27;;;;;;;0.45;0.45;;;22.10;71.40;;;;;;5038602;28;20105;-68
2023/08/16 07:51:56;;;;;;;0.90;0.80;;;22.10;71.40;;;;;;5040044;28;20059;-68
2023/08/16 07:54:22;;;;;;;0.60;0.60;;;22.20;71.40;;;;;;5049762;28;20385;-67
2023/08/16 07:56:48;;;;;;;0.90;0.70;;;22.20;71.30;;;;;;5046468;28;20522;-68
2023/08/16 07:59:14;;;;;;;0.40;0.40;;;22.20;71.20;;;;;;5040723;28;20057;-60
2023/08/16 08:01:40;;;;;;;0.50;0.50;;;22.20;71.20;;;;;;5044783;28;20033;-60
2023/08/16 08:04:06;;;;;;;0.50;0.50;;;22.30;71.20;;;;;;5043230;28;20028;-61
2023/08/16 08:06:32;;;;;;;0.40;0.40;;;22.30;71.10;;;;;;5042313;28;20029;-60
2023/08/16 08:08:58;;;;;;;2.15;0.50;;;22.40;70.90;;;;;;5048734;28;20377;-61
2023/08/16 08:11:24;;;;;;;0.32;0.32;;;22.50;70.80;;;;;;5047458;28;20025;-68
2023/08/16 08:13:49;;;;;;;0.40;0.40;;;22.70;70.60;;;;;;5044613;28;20120;-68
2023/08/16 08:16:15;;;;;;;1.52;0.98;;;22.80;70.30;;;;;;5050224;28;20020;-60
2023/08/16 08:18:41;;;;;;;0.90;0.65;;;22.90;69.90;;;;;;5046795;28;20080;-61
2023/08/16 08:21:06;;;;;;;1.30;0.70;;;22.90;69.80;;;;;;5048710;28;20136;-68
2023/08/16 08:23:32;;;;;;;0.73;0.70;;;22.90;69.60;;;;;;5035229;28;21122;-68
2023/08/16 08:25:58;;;;;;;0.38;0.35;;;22.80;69.60;;;;;;5045621;28;20372;-60
2023/08/16 08:28:23;;;;;;;0.63;0.63;;;22.80;69.80;;;;;;5041745;28;20032;-61
2023/08/16 08:30:49;;;;;;;1.45;0.90;;;22.90;69.90;;;;;;5051021;28;20074;-60
2023/08/16 08:33:15;;;;;;;0.57;0.57;;;23.00;69.80;;;;;;5022243;23;20058;-61
2023/08/16 08:35:41;;;;;;;0.40;0.40;;;23.00;69.80;;;;;;4997996;28;20156;-61
2023/08/16 08:38:06;;;;;;;1.27;0.65;;;22.90;69.70;;;;;;5004487;28;20465;-62
2023/08/16 08:40:32;;;;;;;0.32;0.32;;;23.00;69.80;;;;;;5008599;28;20033;-62
2023/08/16 08:43:03;;;;;;;2.33;1.00;;;23.10;69.60;;;;;;5008158;28;20055;-61
2023/08/16 08:45:30;;;;;;;3.03;0.70;;;23.20;69.60;;;;;;5005418;28;20049;-69
2023/08/16 08:47:59;;;;;;;1.70;0.95;;;23.20;69.50;;;;;;5006779;28;20473;-70
2023/08/16 08:50:25;;;;;;;3.35;0.68;;;23.30;69.50;;;;;;5006928;28;20049;-69
2023/08/16 08:52:54;;;;;;;1.13;1.02;;;23.40;69.40;;;;;;5001785;28;20029;-69
2023/08/16 08:55:20;;;;;;;0.50;0.50;;;23.40;69.30;;;;;;5009157;28;20485;-61
2023/08/16 08:57:50;;;;;;;1.45;0.70;;;23.50;69.30;;;;;;5007125;28;20032;-62
2023/08/16 09:00:19;;;;;;;1.67;1.00;;;23.60;69.10;;;;;;5022996;28;20080;-61
2023/08/16 09:02:47;;;;;;;1.02;0.60;;;23.60;69.10;;;;;;5004583;28;20126;-61
2023/08/16 09:05:14;;;;;;;0.93;0.70;;;23.70;69.00;;;;;;5006682;28;20049;-61
2023/08/16 09:07:41;;;;;;;1.25;0.55;;;23.70;68.90;;;;;;5006946;28;20532;-64
2023/08/16 09:10:09;;;;;;;0.63;0.63;;;23.80;68.70;;;;;;5004541;28;20141;-61
2023/08/16 09:12:37;;;;;;;0.80;0.80;;;24.00;69.10;;;;;;5006189;28;20034;-62
2023/08/16 09:15:03;;;;;;;1.60;0.50;;;24.10;68.20;;;;;;5002516;28;20052;-62
2023/08/16 09:17:31;;;;;;;4.00;1.05;;;24.20;67.90;;;;;;5002561;28;20117;-61
2023/08/16 09:20:00;;;;;;;0.40;0.40;;;24.30;67.80;;;;;;4999468;28;20029;-73
2023/08/16 09:22:27;;;;;;;0.50;0.50;;;24.30;67.50;;;;;;5011539;28;20404;-73
2023/08/16 09:24:56;;;;;;;0.60;0.52;;;24.40;67.50;;;;;;5008261;28;20105;-74
2023/08/16 09:27:22;;;;;;;0.88;0.73;;;24.40;67.40;;;;;;5003967;28;20045;-74
2023/08/16 09:29:49;;;;;;;1.30;0.75;;;24.40;67.40;;;;;;5005692;28;20539;-74
2023/08/16 09:32:14;;;;;;;0.50;0.50;;;24.40;67.30;;;;;;5002975;28;20034;-74
2023/08/16 09:34:40;;;;;;;0.60;0.60;;;24.30;67.20;;;;;;5007822;28;20058;-71
2023/08/16 09:37:07;;;;;;;0.80;0.47;;;24.30;67.50;;;;;;5005880;28;20496;-70
2023/08/16 09:39:33;;;;;;;1.40;0.70;;;24.40;67.40;;;;;;5009192;28;20044;-74
2023/08/16 09:41:59;;;;;;;0.75;0.65;;;24.60;67.10;;;;;;5008744;28;20385;-74
2023/08/16 09:44:29;;;;;;;0.77;0.50;;;24.70;65.80;;;;;;5011058;28;20030;-74
2023/08/16 09:46:56;;;;;;;0.80;0.47;;;24.80;65.70;;;;;;5020715;28;20033;-70
2023/08/16 09:49:23;;;;;;;1.20;0.52;;;24.90;65.30;;;;;;5007512;28;20535;-73
2023/08/16 09:51:50;;;;;;;0.82;0.68;;;25.10;64.90;;;;;;5012218;28;20490;-74
2023/08/16 09:54:17;;;;;;;0.52;0.52;;;25.10;64.60;;;;;;5010667;28;20015;-74
2023/08/16 09:56:43;;;;;;;0.52;0.38;;;25.10;64.40;;;;;;5010008;28;20013;-74
2023/08/16 09:59:11;;;;;;;0.75;0.75;;;25.20;64.10;;;;;;5014647;28;20030;-74
2023/08/16 10:01:37;;;;;;;0.55;0.55;;;25.20;63.40;;;;;;5009108;28;20048;-71
2023/08/16 10:04:04;;;;;;;0.45;0.45;;;25.30;63.50;;;;;;4996377;28;20444;-70
2023/08/16 10:06:31;;;;;;;0.45;0.40;;;25.40;63.40;;;;;;5016508;28;20507;-70
2023/08/16 10:08:57;;;;;;;1.45;0.80;;;25.60;63.30;;;;;;5004792;28;20578;-73
2023/08/16 10:11:24;;;;;;;0.68;0.63;;;25.60;62.50;;;;;;5001181;28;20465;-73
2023/08/16 10:13:51;;;;;;;0.40;0.40;;;25.60;62.20;;;;;;5008716;28;20053;-73
2023/08/16 10:16:19;;;;;;;2.25;0.50;;;25.80;61.80;;;;;;5002376;28;20041;-73
2023/08/16 10:18:47;;;;;;;0.65;0.50;;;25.80;61.50;;;;;;4998374;28;20025;-83
2023/08/16 10:21:17;;;;;;;0.45;0.45;;;25.90;61.50;;;;;;5000965;28;20033;-81
2023/08/16 10:23:44;;;;;;;0.90;0.40;;;26.00;61.70;;;;;;5007415;28;20121;-82
2023/08/16 10:26:14;;;;;;;0.80;0.50;;;26.20;61.70;;;;;;5005570;28;20026;-82
2023/08/16 10:28:50;;;;;;;1.30;1.13;;;26.30;61.70;;;;;;5023141;28;20033;-81
2023/08/16 10:31:21;;;;;;;0.88;0.80;;;26.40;61.40;;;;;;5005939;28;20092;-82
2023/08/16 10:33:50;;;;;;;0.60;0.60;;;26.50;61.20;;;;;;5007394;28;20056;-82
2023/08/16 10:36:16;;;;;;;0.52;0.52;;;26.50;61.00;;;;;;5015113;28;20026;-77
2023/08/16 10:38:42;;;;;;;2.72;0.40;;;26.50;61.10;;;;;;5026681;28;20087;-78
2023/08/16 10:41:15;;;;;;;1.17;0.75;;;26.60;61.00;;;;;;5026783;28;20029;-82
2023/08/16 10:43:52;;;;;;;0.50;0.50;;;26.70;60.80;;;;;;4992033;28;20064;-81
2023/08/16 10:46:33;;;;;;;0.82;0.50;;;26.90;60.60;;;;;;5009313;28;20067;-82
2023/08/16 10:49:01;;;;;;;0.57;0.57;;;27.00;60.30;;;;;;5009928;28;20034;-81
2023/08/16 10:51:27;;;;;;;2.13;0.88;;;26.90;60.10;;;;;;5014252;28;20112;-82
2023/08/16 10:53:57;;;;;;;0.50;0.50;;;26.80;60.20;;;;;;5008649;28;20116;-82
2023/08/16 10:56:23;;;;;;;0.57;0.50;;;26.90;60.50;;;;;;5011486;28;20040;-84
2023/08/16 10:58:50;;;;;;;0.80;0.60;;;27.00;60.50;;;;;;5006012;28;20057;-82
2023/08/16 11:01:17;;;;;;;0.65;0.60;;;27.30;59.80;;;;;;5010795;28;20556;-82
2023/08/16 11:03:48;;;;;;;0.50;0.50;;;27.60;59.20;;;;;;5014682;28;20165;-78
2023/08/16 11:06:15;;;;;;;0.43;0.38;;;27.70;58.30;;;;;;5016702;28;20025;-78
2023/08/16 11:08:45;;;;;;;0.45;0.45;;;27.90;57.90;;;;;;5016737;28;20022;-77
2023/08/16 11:11:12;;;;;;;0.50;0.50;;;28.00;57.70;;;;;;5016317;28;20052;-78
2023/08/16 11:13:40;;;;;;;0.40;0.40;;;28.10;56.70;;;;;;5018966;28;20206;-78
2023/08/16 11:16:09;;;;;;;0.95;0.40;;;28.10;55.80;;;;;;5018805;28;20026;-77
2023/08/16 11:18:36;;;;;;;1.02;0.32;;;28.20;55.60;;;;;;4999517;28;20026;-77
2023/08/16 11:21:03;;;;;;;0.38;0.30;;;28.40;55.70;;;;;;5016282;28;20329;-78
2023/08/16 11:23:35;;;;;;;1.35;0.63;;;28.50;55.30;;;;;;5015066;28;20034;-79
2023/08/16 11:26:01;;;;;;;;;;;28.70;55.00;;;;;;5016676;28;20017;-77
2023/08/16 11:28:31;;;;;;;0.50;0.50;;;28.90;54.70;;;;;;5014983;28;19910;-79
2023/08/16 11:31:07;;;;;;;0.20;0.20;;;29.00;54.00;;;;;;5015126;28;20022;-78
2023/08/16 11:33:35;;;;;;;0.43;0.35;;;29.10;53.70;;;;;;5014871;28;20129;-78
2023/08/16 11:36:02;;;;;;;0.90;0.90;;;29.20;53.60;;;;;;5012316;28;20514;-82
2023/08/16 11:38:29;;;;;;;0.50;0.50;;;29.30;52.70;;;;;;5014904;28;20120;-79
2023/08/16 11:40:55;;;;;;;2.38;0.50;;;29.40;53.10;;;;;;5016334;28;20041;-78
2023/08/16 11:44:03;;;;;;;0.82;0.50;;;29.60;53.10;;;;;;5013531;28;20026;-79
2023/08/16 11:46:42;;;;;;;0.45;0.45;;;29.80;53.10;;;;;;5006172;28;20095;-82
2023/08/16 11:49:08;;;;;;;0.60;0.60;;;29.70;52.40;;;;;;5006578;28;20112;-81
2023/08/16 11:51:38;;;;;;;0.50;0.50;;;29.60;52.10;;;;;;5004660;28;20129;-81
2023/08/16 11:54:04;;;;;;;1.60;0.60;;;29.30;52.80;;;;;;5013316;28;20030;-82
2023/08/16 11:56:30;;;;;;;1.17;0.60;;;29.20;53.40;;;;;;5024046;28;20125;-78
2023/08/16 11:58:56;;;;;;;2.92;0.68;;;29.00;54.00;;;;;;5016107;28;20049;-78
2023/08/16 12:01:22;;;;;;;0.47;0.40;;;28.90;54.20;;;;;;5015982;28;20030;-78
2023/08/16 12:03:49;;;;;;;0.85;0.80;;;29.00;54.50;;;;;;4996863;28;20053;-79
2023/08/16 12:06:16;;;;;;;0.40;0.40;;;29.30;54.10;;;;;;5010412;28;20030;-81
2023/08/16 12:08:52;;;;;;;0.40;0.40;;;29.50;53.60;;;;;;5008077;28;20057;-81
2023/08/16 12:11:35;;;;;;;1.58;0.98;;;29.80;53.30;;;;;;5016534;28;20129;-81
2023/08/16 12:14:02;;;;;;;0.40;0.30;;;29.90;53.00;;;;;;5008224;28;20026;-82
2023/08/16 12:16:28;;;;;;;0.50;0.50;;;30.00;53.00;;;;;;5011328;28;20018;-80
2023/08/16 12:18:56;;;;;;;0.40;0.40;;;30.10;52.60;;;;;;5012543;28;20045;-81
2023/08/16 12:21:21;;;;;;;0.60;0.60;;;30.30;52.50;;;;;;5013993;28;20037;-78
2023/08/16 12:23:47;;;;;;;0.65;0.40;;;30.30;51.40;;;;;;5014161;28;20029;-77
2023/08/16 12:26:14;;;;;;;0.50;0.50;;;30.10;51.10;;;;;;4995848;28;20040;-81
2023/08/16 12:28:40;;;;;;;0.63;0.60;;;29.90;51.30;;;;;;5009461;28;20041;-78
2023/08/16 12:31:06;;;;;;;0.30;0.30;;;29.70;51.50;;;;;;5015461;28;20054;-77
2023/08/16 12:33:32;;;;;;;0.63;0.60;;;29.60;51.90;;;;;;4997468;28;20488;-80
2023/08/16 12:35:58;;;;;;;1.52;0.50;;;29.70;52.10;;;;;;5011851;28;20579;-81
2023/08/16 12:38:24;;;;;;;0.50;0.50;;;29.80;51.90;;;;;;5015728;28;20401;-83
2023/08/16 12:40:49;;;;;;;0.55;0.40;;;30.00;51.40;;;;;;5012840;28;20485;-82
2023/08/16 12:43:15;;;;;;;1.58;0.85;;;30.40;51.30;;;;;;5009645;28;20109;-82
2023/08/16 12:45:41;;;;;;;0.65;0.50;;;30.90;50.10;;;;;;5017295;28;20365;-81
2023/08/16 12:48:07;;;;;;;0.30;0.30;;;31.10;49.70;;;;;;5005491;28;20033;-82